Jamaica, New York
Current Conditions -  °F | °C
As of 2:51 AM on Saturday 25 Oct 2014 (Local Time) from KJFK Reporting Station
Scattered Clouds Scattered Clouds  
Wind Chill: 53°   Ceiling: Unl
Heat Index: 53°   Visibility: 10mi
Dew Point: 35°   Wind: 7mph
Humidity: 50%   Direction: 310°NW
Pressure: 29.87"   Gusts: NA
Location:  40.69°N, 73.81°W
Report Text: KJFK 250651Z 31006KT 10SM SCT250 12/02 A2987 RMK AO2 SLP113 T01170017
Loading
Personal Weather Stations






























Interactive Weather Map
Tropical Storm Tracking
New forecast layout! Learn more

10-Day Weather Forecast

Advertisements
Track Severe Weather on mobile